createdAt,value
2022-09-01T00:01:05.445Z,13.80
2022-09-01T00:04:29.205Z,13.70
2022-09-01T00:07:50.819Z,13.70
2022-09-01T00:11:12.382Z,13.70
2022-09-01T00:14:40.971Z,13.70
2022-09-01T00:18:03.349Z,13.60
2022-09-01T00:21:26.052Z,13.60
2022-09-01T00:24:47.732Z,13.60
2022-09-01T00:28:09.312Z,13.70
2022-09-01T00:31:32.431Z,13.60
2022-09-01T00:34:54.119Z,13.60
2022-09-01T00:38:15.729Z,13.60
2022-09-01T00:41:39.097Z,13.60
2022-09-01T00:45:00.711Z,13.60
2022-09-01T00:48:23.815Z,13.60
2022-09-01T00:51:47.267Z,13.60
2022-09-01T00:55:10.975Z,13.60
2022-09-01T00:58:32.768Z,13.60
2022-09-01T01:01:54.429Z,13.50
2022-09-01T01:05:17.423Z,13.50
2022-09-01T01:08:41.546Z,13.50
2022-09-01T01:12:03.882Z,13.60
2022-09-01T01:15:25.687Z,13.60
2022-09-01T01:18:47.299Z,13.70
2022-09-01T01:22:13.911Z,13.70
2022-09-01T01:25:38.971Z,13.70
2022-09-01T01:29:00.606Z,13.60
2022-09-01T01:32:22.203Z,13.60
2022-09-01T01:35:43.807Z,13.60
2022-09-01T01:39:07.236Z,13.60
2022-09-01T01:42:32.187Z,13.60
2022-09-01T01:45:54.989Z,13.60
2022-09-01T01:49:17.423Z,13.60
2022-09-01T01:52:39.018Z,13.60
2022-09-01T01:56:06.993Z,13.50
2022-09-01T01:59:30.311Z,13.50
2022-09-01T02:02:52.169Z,13.40
2022-09-01T02:06:13.893Z,13.40
2022-09-01T02:09:35.508Z,13.30
2022-09-01T02:12:57.115Z,13.40
2022-09-01T02:16:20.063Z,13.30
2022-09-01T02:19:41.657Z,13.30
2022-09-01T02:23:03.256Z,13.30
2022-09-01T02:26:25.259Z,13.30
2022-09-01T02:29:46.850Z,13.30
2022-09-01T02:33:09.759Z,13.30
2022-09-01T02:36:31.333Z,13.30
2022-09-01T02:39:53.066Z,13.30
2022-09-01T02:43:15.628Z,13.30
2022-09-01T02:46:37.456Z,13.20
2022-09-01T02:50:00.440Z,13.10
2022-09-01T02:53:22.031Z,13.10
2022-09-01T02:56:44.067Z,13.10
2022-09-01T03:00:07.529Z,13.10
2022-09-01T03:03:29.134Z,13.10
2022-09-01T03:06:52.070Z,13.00
2022-09-01T03:10:13.652Z,13.00
2022-09-01T03:13:35.212Z,13.00
2022-09-01T03:16:56.855Z,13.00
2022-09-01T03:20:18.574Z,13.00
2022-09-01T03:23:41.839Z,12.90
2022-09-01T03:27:03.532Z,13.00
2022-09-01T03:30:25.236Z,13.00
2022-09-01T03:33:46.821Z,12.90
2022-09-01T03:37:09.229Z,12.90
2022-09-01T03:40:33.476Z,12.80
2022-09-01T03:43:55.547Z,12.80
2022-09-01T03:47:17.211Z,12.80
2022-09-01T03:50:40.280Z,12.70
2022-09-01T03:54:01.860Z,12.70
2022-09-01T03:57:24.786Z,12.70
2022-09-01T04:00:49.277Z,12.90
2022-09-01T04:04:11.234Z,13.00
2022-09-01T04:07:32.844Z,13.10
2022-09-01T04:10:54.774Z,13.20
2022-09-01T04:14:17.705Z,13.30
2022-09-01T04:17:39.388Z,13.30
2022-09-01T04:21:00.994Z,13.30
2022-09-01T04:24:23.198Z,13.30
2022-09-01T04:27:44.820Z,13.30
2022-09-01T04:31:08.721Z,13.20
2022-09-01T04:34:30.921Z,13.10
2022-09-01T04:37:52.528Z,13.10
2022-09-01T04:41:14.138Z,13.10
2022-09-01T04:44:36.110Z,13.20
2022-09-01T04:47:59.052Z,13.30
2022-09-01T04:51:21.148Z,13.40
2022-09-01T04:54:42.725Z,13.50
2022-09-01T04:58:08.292Z,13.60
2022-09-01T05:01:31.811Z,13.70
2022-09-01T05:04:54.799Z,13.70
2022-09-01T05:08:23.156Z,13.80
2022-09-01T05:11:45.758Z,13.90
2022-09-01T05:15:07.860Z,13.90
2022-09-01T05:18:29.518Z,14.00
2022-09-01T05:21:52.449Z,14.00
2022-09-01T05:25:14.045Z,14.00
2022-09-01T05:28:35.616Z,14.00
2022-09-01T05:31:57.513Z,14.00
2022-09-01T05:35:19.115Z,14.00
2022-09-01T05:38:42.054Z,14.10
2022-09-01T05:42:03.831Z,14.20
2022-09-01T05:45:25.405Z,14.40
2022-09-01T05:48:47.563Z,14.50
2022-09-01T05:52:09.148Z,14.70
2022-09-01T05:55:36.567Z,14.70
2022-09-01T06:02:42.044Z,14.90
2022-09-01T06:06:04.415Z,15.00
2022-09-01T06:09:26.022Z,15.10
2022-09-01T06:12:49.155Z,15.20
2022-09-01T06:16:15.546Z,15.30
2022-09-01T06:19:37.564Z,15.50
2022-09-01T06:22:59.157Z,15.50
2022-09-01T06:26:21.956Z,15.50
2022-09-01T06:29:44.883Z,15.60
2022-09-01T06:33:06.559Z,15.70
2022-09-01T06:36:31.021Z,15.90
2022-09-01T06:39:54.737Z,16.10
2022-09-01T06:43:16.467Z,16.20
2022-09-01T06:46:39.514Z,16.40
2022-09-01T06:50:01.113Z,16.60
2022-09-01T06:53:38.829Z,16.70
2022-09-01T06:57:00.925Z,16.80
2022-09-01T07:00:22.892Z,17.10
2022-09-01T07:03:46.856Z,17.30
2022-09-01T07:14:33.284Z,17.40
2022-09-01T07:17:55.799Z,17.40
2022-09-01T07:25:16.804Z,17.40
2022-09-01T07:28:38.486Z,17.20
2022-09-01T07:36:25.587Z,17.30
2022-09-01T07:43:07.960Z,17.60
2022-09-01T07:46:37.655Z,17.90
2022-09-01T07:51:35.068Z,18.10
2022-09-01T07:53:41.654Z,18.40
2022-09-01T07:57:04.922Z,18.40
2022-09-01T08:00:28.424Z,18.70
2022-09-01T08:03:55.125Z,19.00
2022-09-01T08:07:16.732Z,19.60
2022-09-01T08:10:38.633Z,20.00
2022-09-01T08:14:01.572Z,19.80
2022-09-01T08:21:06.284Z,19.60
2022-09-01T08:24:27.890Z,19.70
2022-09-01T08:27:49.502Z,19.60
2022-09-01T08:31:13.468Z,19.50
2022-09-01T08:34:35.046Z,19.40
2022-09-01T08:37:56.850Z,19.30
2022-09-01T08:41:19.624Z,19.50
2022-09-01T08:44:52.819Z,19.30
2022-09-01T08:52:02.255Z,19.80
2022-09-01T08:55:26.694Z,20.10
2022-09-01T08:58:48.318Z,20.30
2022-09-01T09:02:19.614Z,20.50
2022-09-01T09:05:49.368Z,21.20
2022-09-01T09:09:11.119Z,21.70
2022-09-01T09:12:49.004Z,21.50
2022-09-01T09:16:15.365Z,21.40
2022-09-01T09:19:38.824Z,21.10
2022-09-01T09:23:03.939Z,21.30
2022-09-01T09:26:25.693Z,21.60
2022-09-01T09:29:48.340Z,21.40
2022-09-01T09:33:44.164Z,21.10
2022-09-01T09:36:55.323Z,21.40
2022-09-01T09:40:20.910Z,21.70
2022-09-01T09:43:43.779Z,22.00
2022-09-01T09:47:21.915Z,22.10
2022-09-01T09:50:47.701Z,22.00
2022-09-01T09:54:10.960Z,21.50
2022-09-01T09:57:38.679Z,21.50
2022-09-01T10:01:01.491Z,21.80
2022-09-01T10:04:34.060Z,21.70
2022-09-01T10:07:56.344Z,21.70
2022-09-01T10:11:33.569Z,21.80
2022-09-01T10:15:04.651Z,21.90
2022-09-01T10:18:36.326Z,21.60
2022-09-01T10:21:58.062Z,21.50
2022-09-01T10:25:21.539Z,21.20
2022-09-01T10:28:49.571Z,21.30
2022-09-01T10:32:34.656Z,21.80
2022-09-01T10:35:57.852Z,21.90
2022-09-01T10:39:22.170Z,21.90
2022-09-01T10:42:52.011Z,22.00
2022-09-01T10:46:48.982Z,22.20
2022-09-01T10:50:25.363Z,22.40
2022-09-01T10:53:47.290Z,22.10
2022-09-01T10:57:12.198Z,21.80
2022-09-01T11:04:43.778Z,21.70
2022-09-01T11:08:41.543Z,21.90
2022-09-01T11:12:29.925Z,21.80
2022-09-01T11:15:53.247Z,21.60
2022-09-01T11:19:32.616Z,21.50
2022-09-01T11:22:59.750Z,21.30
2022-09-01T11:26:39.830Z,21.20
2022-09-01T11:30:08.260Z,21.20
2022-09-01T11:33:47.607Z,21.40
2022-09-01T11:37:12.888Z,21.50
2022-09-01T11:40:36.046Z,21.60
2022-09-01T11:43:57.707Z,21.60
2022-09-01T11:47:22.071Z,22.00
2022-09-01T11:50:43.696Z,22.30
2022-09-01T11:54:05.363Z,22.40
2022-09-01T11:57:29.162Z,22.50
2022-09-01T12:00:50.767Z,22.40
2022-09-01T12:04:21.201Z,22.40
2022-09-01T12:07:44.762Z,22.30
2022-09-01T12:11:07.375Z,22.00
2022-09-01T12:14:43.420Z,22.00
2022-09-01T12:18:13.009Z,22.20
2022-09-01T12:21:37.573Z,22.40
2022-09-01T12:24:59.169Z,22.80
2022-09-01T12:28:20.976Z,23.10
2022-09-01T12:31:43.490Z,23.20
2022-09-01T12:35:13.808Z,23.20
2022-09-01T12:38:36.776Z,23.00
2022-09-01T12:42:02.520Z,22.80
2022-09-01T12:45:37.386Z,22.70
2022-09-01T12:52:44.887Z,22.50
2022-09-01T12:56:21.383Z,22.50
2022-09-01T12:59:44.333Z,22.60
2022-09-01T13:03:09.177Z,22.80
2022-09-01T13:06:30.850Z,22.50
2022-09-01T13:09:52.536Z,22.40
2022-09-01T13:13:14.756Z,22.40
2022-09-01T13:16:37.713Z,22.20
2022-09-01T13:19:59.400Z,22.10
2022-09-01T13:23:21.735Z,22.10
2022-09-01T13:27:20.112Z,22.10
2022-09-01T13:30:25.440Z,22.00
2022-09-01T13:37:30.008Z,22.70
2022-09-01T13:40:51.684Z,23.20
2022-09-01T13:44:13.255Z,23.20
2022-09-01T13:47:35.450Z,23.00
2022-09-01T13:51:25.454Z,22.60
2022-09-01T13:54:47.053Z,22.30
2022-09-01T13:58:09.023Z,22.10
2022-09-01T14:01:30.625Z,22.10
2022-09-01T14:04:52.380Z,22.10
2022-09-01T14:08:17.115Z,21.90
2022-09-01T14:11:38.696Z,21.70
2022-09-01T14:15:18.051Z,21.60
2022-09-01T14:18:41.718Z,21.80
2022-09-01T14:22:03.399Z,22.00
2022-09-01T14:25:26.330Z,22.00
2022-09-01T14:28:47.936Z,22.00
2022-09-01T14:32:09.539Z,21.90
2022-09-01T14:35:31.477Z,21.90
2022-09-01T14:38:53.786Z,21.80
2022-09-01T14:42:16.772Z,21.80
2022-09-01T14:45:38.372Z,21.70
2022-09-01T14:49:00.650Z,21.80
2022-09-01T14:52:22.349Z,21.80
2022-09-01T14:55:44.286Z,21.80
2022-09-01T14:59:07.250Z,21.90
2022-09-01T15:02:28.876Z,21.90
2022-09-01T15:05:50.587Z,22.00
2022-09-01T15:09:15.016Z,22.10
2022-09-01T15:12:40.113Z,22.10
2022-09-01T15:16:03.559Z,22.20
2022-09-01T15:19:25.207Z,22.20
2022-09-01T15:22:46.824Z,22.30
2022-09-01T15:26:08.444Z,22.30
2022-09-01T15:29:30.291Z,22.30
2022-09-01T15:32:53.736Z,22.20
2022-09-01T15:36:16.347Z,22.20
2022-09-01T15:39:38.350Z,22.30
2022-09-01T15:43:00.429Z,22.30
2022-09-01T15:46:22.397Z,22.40
2022-09-01T15:49:45.370Z,22.40
2022-09-01T15:53:08.217Z,22.30
2022-09-01T15:56:30.271Z,22.20
2022-09-01T15:59:51.840Z,22.00
2022-09-01T16:03:13.484Z,21.90
2022-09-01T16:06:36.576Z,21.80
2022-09-01T16:09:58.143Z,21.80
2022-09-01T16:13:20.045Z,21.80
2022-09-01T16:16:48.976Z,21.90
2022-09-01T16:20:14.041Z,21.80
2022-09-01T16:23:40.754Z,21.70
2022-09-01T16:27:02.482Z,21.80
2022-09-01T16:30:26.472Z,21.70
2022-09-01T16:33:49.322Z,21.60
2022-09-01T16:37:15.341Z,21.60
2022-09-01T16:40:43.712Z,21.50
2022-09-01T16:44:09.643Z,21.50
2022-09-01T16:47:50.742Z,21.40
2022-09-01T16:51:15.436Z,21.30
2022-09-01T16:54:42.435Z,21.20
2022-09-01T16:58:14.366Z,21.10
2022-09-01T17:01:46.758Z,21.00
2022-09-01T17:05:14.602Z,21.00
2022-09-01T17:08:40.722Z,20.90
2022-09-01T17:12:17.190Z,20.80
2022-09-01T17:15:40.291Z,20.70
2022-09-01T17:19:03.673Z,20.60
2022-09-01T17:22:25.680Z,20.50
2022-09-01T17:25:50.778Z,20.40
2022-09-01T17:29:14.682Z,20.30
2022-09-01T17:32:54.234Z,20.20
2022-09-01T17:36:21.171Z,20.10
2022-09-01T17:39:48.683Z,20.00
2022-09-01T17:43:14.761Z,19.80
2022-09-01T17:46:42.376Z,19.70
2022-09-01T17:50:08.996Z,19.60
2022-09-01T17:53:37.224Z,19.40
2022-09-01T17:57:01.133Z,19.30
2022-09-01T18:00:24.208Z,19.20
2022-09-01T18:03:54.490Z,19.10
2022-09-01T18:07:25.463Z,19.00
2022-09-01T18:10:50.249Z,18.80
2022-09-01T18:14:14.038Z,18.80
2022-09-01T18:17:38.288Z,18.70
2022-09-01T18:21:02.562Z,18.60
2022-09-01T18:24:27.831Z,18.50
2022-09-01T18:27:50.796Z,18.30
2022-09-01T18:31:17.445Z,18.20
2022-09-01T18:34:47.699Z,18.20
2022-09-01T18:38:16.448Z,18.10
2022-09-01T18:41:43.209Z,18.10
2022-09-01T18:45:09.658Z,18.00
2022-09-01T18:48:49.654Z,18.00
2022-09-01T18:52:18.609Z,17.90
2022-09-01T18:55:43.039Z,17.90
2022-09-01T18:59:11.651Z,17.80
2022-09-01T19:02:51.330Z,17.80
2022-09-01T19:06:26.991Z,17.70
2022-09-01T19:09:53.822Z,17.50
2022-09-01T19:13:20.947Z,17.40
2022-09-01T19:16:48.853Z,17.20
2022-09-01T19:20:11.553Z,17.10
2022-09-01T19:23:40.384Z,17.00
2022-09-01T19:27:07.410Z,16.90
2022-09-01T19:30:29.144Z,16.70
2022-09-01T19:33:53.422Z,16.60
2022-09-01T19:37:15.209Z,16.50
2022-09-01T19:40:39.442Z,16.50
2022-09-01T19:44:04.484Z,16.50
2022-09-01T19:47:29.290Z,16.50
2022-09-01T19:50:53.422Z,16.50
2022-09-01T19:54:20.046Z,16.60
2022-09-01T19:57:46.526Z,16.60
2022-09-01T20:01:09.710Z,16.70
2022-09-01T20:04:38.479Z,16.70
2022-09-01T20:08:02.924Z,16.70
2022-09-01T20:11:30.311Z,16.70
2022-09-01T20:14:58.743Z,16.60
2022-09-01T20:18:24.128Z,16.60
2022-09-01T20:21:46.999Z,16.60
2022-09-01T20:25:10.802Z,16.60
2022-09-01T20:28:40.850Z,16.50
2022-09-01T20:32:03.938Z,16.40
2022-09-01T20:35:28.298Z,16.30
2022-09-01T20:38:52.354Z,16.30
2022-09-01T20:42:16.115Z,16.20
2022-09-01T20:45:38.494Z,16.20
2022-09-01T20:49:02.638Z,16.10
2022-09-01T20:52:28.387Z,16.00
2022-09-01T20:55:54.582Z,15.90
2022-09-01T20:59:22.968Z,15.90
2022-09-01T21:02:52.323Z,15.80
2022-09-01T21:06:22.049Z,15.80
2022-09-01T21:09:54.273Z,15.80
2022-09-01T21:13:24.829Z,15.70
2022-09-01T21:16:52.781Z,15.60
2022-09-01T21:20:21.432Z,15.60
2022-09-01T21:23:44.390Z,15.60
2022-09-01T21:27:07.232Z,15.50
2022-09-01T21:30:30.226Z,15.40
2022-09-01T21:33:51.844Z,15.20
2022-09-01T21:37:13.940Z,15.10
2022-09-01T21:40:36.928Z,15.00
2022-09-01T21:43:58.576Z,14.90
2022-09-01T21:47:20.166Z,14.90
2022-09-01T21:50:41.944Z,14.80
2022-09-01T21:54:03.664Z,14.80
2022-09-01T21:57:26.593Z,14.80
2022-09-01T22:00:48.231Z,14.80
2022-09-01T22:04:10.066Z,14.90
2022-09-01T22:07:31.795Z,14.90
2022-09-01T22:10:54.235Z,14.90
2022-09-01T22:14:17.352Z,14.80
2022-09-01T22:17:38.945Z,14.80
2022-09-01T22:21:01.356Z,14.80
2022-09-01T22:24:22.935Z,14.80
2022-09-01T22:27:44.517Z,14.80
2022-09-01T22:31:12.212Z,14.80
2022-09-01T22:34:34.189Z,14.70
2022-09-01T22:37:55.813Z,14.80
2022-09-01T22:41:18.401Z,14.80
2022-09-01T22:44:39.994Z,14.80
2022-09-01T22:48:03.256Z,14.70
2022-09-01T22:51:25.373Z,14.70
2022-09-01T22:54:47.224Z,14.60
2022-09-01T22:58:09.504Z,14.50
2022-09-01T23:01:33.160Z,14.40
2022-09-01T23:04:56.228Z,14.30
2022-09-01T23:08:17.823Z,14.20
2022-09-01T23:11:39.744Z,14.20
2022-09-01T23:15:01.333Z,14.10
2022-09-01T23:18:23.455Z,14.00
2022-09-01T23:21:46.430Z,14.00
2022-09-01T23:25:08.592Z,13.90
2022-09-01T23:28:30.441Z,13.90
2022-09-01T23:31:52.391Z,13.80
2022-09-01T23:35:14.054Z,13.70
2022-09-01T23:38:40.015Z,13.70
2022-09-01T23:42:02.159Z,13.70
2022-09-01T23:45:23.788Z,13.60
2022-09-01T23:48:45.434Z,13.60
2022-09-01T23:52:07.334Z,13.60
2022-09-01T23:55:30.262Z,13.50
2022-09-01T23:58:52.260Z,13.40
